sensor_id;sensor_type;location;lat;lon;timestamp;P1;durP1;ratioP1;P2;durP2;ratioP2
22849;SDS011;11591;44.792;10.358;2023-07-13T08:06:16;11.77;;;3.92;;
22849;SDS011;11591;44.792;10.358;2023-07-13T08:08:44;16.25;;;5.25;;
22849;SDS011;11591;44.792;10.358;2023-07-13T08:11:11;13.20;;;4.57;;
22849;SDS011;11591;44.792;10.358;2023-07-13T08:13:37;20.55;;;6.05;;
22849;SDS011;11591;44.792;10.358;2023-07-13T08:16:04;19.20;;;4.75;;
22849;SDS011;11591;44.792;10.358;2023-07-13T08:18:31;15.60;;;5.20;;
22849;SDS011;11591;44.792;10.358;2023-07-13T08:20:57;19.90;;;5.30;;
22849;SDS011;11591;44.792;10.358;2023-07-13T08:23:24;16.60;;;5.28;;
22849;SDS011;11591;44.792;10.358;2023-07-13T08:25:53;19.73;;;5.63;;
22849;SDS011;11591;44.792;10.358;2023-07-13T08:28:20;18.17;;;5.70;;
22849;SDS011;11591;44.792;10.358;2023-07-13T08:30:47;17.70;;;6.18;;
22849;SDS011;11591;44.792;10.358;2023-07-13T08:33:17;20.92;;;6.07;;
22849;SDS011;11591;44.792;10.358;2023-07-13T08:35:47;14.15;;;5.95;;
22849;SDS011;11591;44.792;10.358;2023-07-13T08:38:13;10.77;;;5.47;;
22849;SDS011;11591;44.792;10.358;2023-07-13T08:40:40;18.58;;;4.55;;
22849;SDS011;11591;44.792;10.358;2023-07-13T08:43:08;10.80;;;3.85;;
22849;SDS011;11591;44.792;10.358;2023-07-13T08:48:34;11.02;;;3.35;;
22849;SDS011;11591;44.792;10.358;2023-07-13T08:54:02;19.85;;;3.63;;
22849;SDS011;11591;44.792;10.358;2023-07-13T08:56:31;8.18;;;3.28;;
22849;SDS011;11591;44.792;10.358;2023-07-13T08:58:58;7.65;;;3.78;;
22849;SDS011;11591;44.792;10.358;2023-07-13T09:01:53;9.73;;;3.60;;
22849;SDS011;11591;44.792;10.358;2023-07-13T09:04:39;11.68;;;4.07;;
22849;SDS011;11591;44.792;10.358;2023-07-13T09:10:45;7.32;;;3.33;;
22849;SDS011;11591;44.792;10.358;2023-07-13T09:15:55;12.55;;;3.80;;
22849;SDS011;11591;44.792;10.358;2023-07-13T09:23:34;10.30;;;3.92;;
22849;SDS011;11591;44.792;10.358;2023-07-13T09:26:05;7.90;;;3.47;;
22849;SDS011;11591;44.792;10.358;2023-07-13T09:28:45;9.02;;;4.07;;
22849;SDS011;11591;44.792;10.358;2023-07-13T09:31:55;17.02;;;4.55;;
22849;SDS011;11591;44.792;10.358;2023-07-13T09:34:14;8.93;;;3.75;;
22849;SDS011;11591;44.792;10.358;2023-07-13T09:36:40;17.80;;;3.85;;
22849;SDS011;11591;44.792;10.358;2023-07-13T09:39:24;28.77;;;5.45;;
22849;SDS011;11591;44.792;10.358;2023-07-13T09:42:12;12.25;;;4.65;;
22849;SDS011;11591;44.792;10.358;2023-07-13T09:44:56;18.30;;;4.85;;
22849;SDS011;11591;44.792;10.358;2023-07-13T09:47:27;12.18;;;5.20;;
22849;SDS011;11591;44.792;10.358;2023-07-13T09:49:58;12.10;;;4.45;;
22849;SDS011;11591;44.792;10.358;2023-07-13T09:52:38;12.45;;;4.75;;
22849;SDS011;11591;44.792;10.358;2023-07-13T09:57:51;14.27;;;5.07;;
22849;SDS011;11591;44.792;10.358;2023-07-13T10:00:28;14.18;;;4.53;;
22849;SDS011;11591;44.792;10.358;2023-07-13T10:02:58;7.97;;;4.20;;
22849;SDS011;11591;44.792;10.358;2023-07-13T10:05:25;11.73;;;3.85;;
22849;SDS011;11591;44.792;10.358;2023-07-13T10:07:51;10.52;;;3.53;;
22849;SDS011;11591;44.792;10.358;2023-07-13T10:10:18;12.32;;;3.88;;
22849;SDS011;11591;44.792;10.358;2023-07-13T10:12:48;15.68;;;4.85;;
22849;SDS011;11591;44.792;10.358;2023-07-13T10:15:16;10.15;;;3.80;;
22849;SDS011;11591;44.792;10.358;2023-07-13T10:17:47;11.70;;;4.65;;
22849;SDS011;11591;44.792;10.358;2023-07-13T10:20:14;8.13;;;4.03;;
22849;SDS011;11591;44.792;10.358;2023-07-13T10:25:33;7.03;;;4.05;;
22849;SDS011;11591;44.792;10.358;2023-07-13T10:28:06;10.27;;;2.95;;
22849;SDS011;11591;44.792;10.358;2023-07-13T10:30:53;10.07;;;3.20;;
22849;SDS011;11591;44.792;10.358;2023-07-13T10:33:23;5.20;;;2.83;;
22849;SDS011;11591;44.792;10.358;2023-07-13T10:35:50;7.65;;;3.90;;
22849;SDS011;11591;44.792;10.358;2023-07-13T10:38:21;10.48;;;3.22;;
22849;SDS011;11591;44.792;10.358;2023-07-13T10:43:44;8.77;;;3.03;;
22849;SDS011;11591;44.792;10.358;2023-07-13T10:46:16;6.03;;;3.33;;
22849;SDS011;11591;44.792;10.358;2023-07-13T10:48:45;7.63;;;4.10;;
22849;SDS011;11591;44.792;10.358;2023-07-13T10:51:18;11.60;;;4.53;;
22849;SDS011;11591;44.792;10.358;2023-07-13T10:54:10;12.52;;;4.45;;
22849;SDS011;11591;44.792;10.358;2023-07-13T10:56:43;9.82;;;4.00;;
22849;SDS011;11591;44.792;10.358;2023-07-13T10:59:12;9.57;;;4.40;;
22849;SDS011;11591;44.792;10.358;2023-07-13T11:04:19;9.98;;;4.25;;
22849;SDS011;11591;44.792;10.358;2023-07-13T11:06:47;9.98;;;4.78;;
22849;SDS011;11591;44.792;10.358;2023-07-13T11:12:06;10.55;;;5.78;;
22849;SDS011;11591;44.792;10.358;2023-07-13T11:22:52;9.98;;;4.32;;
22849;SDS011;11591;44.792;10.358;2023-07-13T11:25:33;7.72;;;3.63;;
22849;SDS011;11591;44.792;10.358;2023-07-13T11:36:18;14.13;;;5.55;;
22849;SDS011;11591;44.792;10.358;2023-07-13T11:39:12;13.40;;;5.40;;
22849;SDS011;11591;44.792;10.358;2023-07-13T11:41:53;9.73;;;4.40;;
22849;SDS011;11591;44.792;10.358;2023-07-13T11:44:23;14.10;;;5.32;;
22849;SDS011;11591;44.792;10.358;2023-07-13T11:46:51;11.60;;;4.93;;
22849;SDS011;11591;44.792;10.358;2023-07-13T11:49:20;13.25;;;5.88;;
22849;SDS011;11591;44.792;10.358;2023-07-13T11:51:52;15.82;;;7.82;;
22849;SDS011;11591;44.792;10.358;2023-07-13T11:54:22;14.77;;;5.53;;
22849;SDS011;11591;44.792;10.358;2023-07-13T11:57:07;11.70;;;5.68;;
22849;SDS011;11591;44.792;10.358;2023-07-13T11:59:48;12.07;;;5.00;;
22849;SDS011;11591;44.792;10.358;2023-07-13T12:02:28;12.40;;;5.07;;
22849;SDS011;11591;44.792;10.358;2023-07-13T12:04:56;12.70;;;5.50;;
22849;SDS011;11591;44.792;10.358;2023-07-13T12:07:24;18.80;;;7.03;;
22849;SDS011;11591;44.792;10.358;2023-07-13T12:09:53;11.80;;;5.28;;
22849;SDS011;11591;44.792;10.358;2023-07-13T12:12:20;15.82;;;6.28;;
22849;SDS011;11591;44.792;10.358;2023-07-13T12:14:51;7.88;;;4.90;;
22849;SDS011;11591;44.792;10.358;2023-07-13T12:17:23;10.88;;;4.93;;
22849;SDS011;11591;44.792;10.358;2023-07-13T12:19:51;10.88;;;4.63;;
22849;SDS011;11591;44.792;10.358;2023-07-13T12:22:18;10.30;;;5.22;;
22849;SDS011;11591;44.792;10.358;2023-07-13T12:24:46;13.45;;;5.22;;
22849;SDS011;11591;44.792;10.358;2023-07-13T12:27:20;10.65;;;5.32;;
22849;SDS011;11591;44.792;10.358;2023-07-13T12:29:51;11.55;;;4.75;;
22849;SDS011;11591;44.792;10.358;2023-07-13T12:32:23;13.85;;;5.65;;
22849;SDS011;11591;44.792;10.358;2023-07-13T12:34:54;15.63;;;5.53;;
22849;SDS011;11591;44.792;10.358;2023-07-13T12:37:44;13.50;;;4.85;;
22849;SDS011;11591;44.792;10.358;2023-07-13T12:40:32;10.57;;;5.03;;
22849;SDS011;11591;44.792;10.358;2023-07-13T12:43:00;12.82;;;5.30;;
22849;SDS011;11591;44.792;10.358;2023-07-13T12:45:29;9.30;;;4.72;;
22849;SDS011;11591;44.792;10.358;2023-07-13T12:48:03;13.43;;;4.93;;
22849;SDS011;11591;44.792;10.358;2023-07-13T12:50:37;13.10;;;5.10;;
22849;SDS011;11591;44.792;10.358;2023-07-13T12:53:09;18.08;;;4.78;;
22849;SDS011;11591;44.792;10.358;2023-07-13T12:55:43;16.23;;;4.65;;
22849;SDS011;11591;44.792;10.358;2023-07-13T12:58:36;17.38;;;4.78;;
22849;SDS011;11591;44.792;10.358;2023-07-13T13:01:02;12.38;;;4.72;;
22849;SDS011;11591;44.792;10.358;2023-07-13T13:08:32;11.80;;;5.45;;
22849;SDS011;11591;44.792;10.358;2023-07-13T13:11:01;12.80;;;4.43;;
22849;SDS011;11591;44.792;10.358;2023-07-13T13:13:27;17.40;;;4.68;;
22849;SDS011;11591;44.792;10.358;2023-07-13T13:15:54;9.07;;;4.55;;
22849;SDS011;11591;44.792;10.358;2023-07-13T13:18:20;12.95;;;4.97;;
22849;SDS011;11591;44.792;10.358;2023-07-13T13:20:49;12.25;;;4.63;;
22849;SDS011;11591;44.792;10.358;2023-07-13T13:23:17;16.02;;;4.93;;
22849;SDS011;11591;44.792;10.358;2023-07-13T13:25:48;16.50;;;5.15;;
22849;SDS011;11591;44.792;10.358;2023-07-13T13:28:18;10.45;;;4.72;;
22849;SDS011;11591;44.792;10.358;2023-07-13T13:30:46;10.10;;;4.68;;
22849;SDS011;11591;44.792;10.358;2023-07-13T13:33:14;13.45;;;4.90;;
22849;SDS011;11591;44.792;10.358;2023-07-13T13:35:42;12.90;;;4.88;;
22849;SDS011;11591;44.792;10.358;2023-07-13T13:38:27;12.73;;;4.70;;
22849;SDS011;11591;44.792;10.358;2023-07-13T13:40:53;14.05;;;4.95;;
22849;SDS011;11591;44.792;10.358;2023-07-13T13:43:23;10.75;;;4.82;;
22849;SDS011;11591;44.792;10.358;2023-07-13T13:45:52;13.10;;;5.13;;
22849;SDS011;11591;44.792;10.358;2023-07-13T13:48:21;13.68;;;5.20;;
22849;SDS011;11591;44.792;10.358;2023-07-13T13:51:18;8.93;;;4.20;;
22849;SDS011;11591;44.792;10.358;2023-07-13T13:53:46;16.85;;;5.07;;
22849;SDS011;11591;44.792;10.358;2023-07-13T13:56:13;13.43;;;4.78;;
22849;SDS011;11591;44.792;10.358;2023-07-13T13:58:40;14.52;;;4.88;;
22849;SDS011;11591;44.792;10.358;2023-07-13T14:01:10;12.80;;;4.95;;
22849;SDS011;11591;44.792;10.358;2023-07-13T14:03:39;12.57;;;5.22;;
22849;SDS011;11591;44.792;10.358;2023-07-13T14:06:07;13.70;;;5.05;;
22849;SDS011;11591;44.792;10.358;2023-07-13T14:08:36;15.40;;;5.15;;
22849;SDS011;11591;44.792;10.358;2023-07-13T14:11:02;18.35;;;5.07;;
22849;SDS011;11591;44.792;10.358;2023-07-13T14:13:28;10.65;;;4.63;;
22849;SDS011;11591;44.792;10.358;2023-07-13T14:16:26;11.65;;;4.38;;
22849;SDS011;11591;44.792;10.358;2023-07-13T14:18:56;11.18;;;4.90;;
22849;SDS011;11591;44.792;10.358;2023-07-13T14:21:25;18.50;;;5.80;;
22849;SDS011;11591;44.792;10.358;2023-07-13T14:23:52;13.55;;;4.80;;
22849;SDS011;11591;44.792;10.358;2023-07-13T14:26:22;20.98;;;5.15;;
22849;SDS011;11591;44.792;10.358;2023-07-13T14:28:51;13.02;;;5.57;;
22849;SDS011;11591;44.792;10.358;2023-07-13T14:31:19;18.67;;;4.82;;
22849;SDS011;11591;44.792;10.358;2023-07-13T14:33:46;9.77;;;4.70;;
22849;SDS011;11591;44.792;10.358;2023-07-13T14:36:21;14.00;;;5.68;;
22849;SDS011;11591;44.792;10.358;2023-07-13T14:38:55;14.57;;;5.10;;
22849;SDS011;11591;44.792;10.358;2023-07-13T14:41:22;17.83;;;5.25;;
22849;SDS011;11591;44.792;10.358;2023-07-13T14:43:49;14.45;;;5.22;;
22849;SDS011;11591;44.792;10.358;2023-07-13T14:46:30;13.77;;;5.53;;
22849;SDS011;11591;44.792;10.358;2023-07-13T14:49:00;12.45;;;5.50;;
22849;SDS011;11591;44.792;10.358;2023-07-13T14:51:31;20.33;;;4.95;;
22849;SDS011;11591;44.792;10.358;2023-07-13T14:54:00;12.40;;;5.43;;
22849;SDS011;11591;44.792;10.358;2023-07-13T14:56:28;17.40;;;5.30;;
22849;SDS011;11591;44.792;10.358;2023-07-13T14:58:54;14.27;;;5.90;;
22849;SDS011;11591;44.792;10.358;2023-07-13T15:01:20;16.80;;;5.50;;
22849;SDS011;11591;44.792;10.358;2023-07-13T15:03:48;12.45;;;6.00;;
22849;SDS011;11591;44.792;10.358;2023-07-13T15:06:16;17.20;;;5.95;;
22849;SDS011;11591;44.792;10.358;2023-07-13T15:08:44;12.30;;;5.25;;
22849;SDS011;11591;44.792;10.358;2023-07-13T15:11:12;13.43;;;5.18;;
22849;SDS011;11591;44.792;10.358;2023-07-13T15:13:39;14.90;;;5.40;;
22849;SDS011;11591;44.792;10.358;2023-07-13T15:16:38;13.90;;;5.78;;
22849;SDS011;11591;44.792;10.358;2023-07-13T15:18:57;12.75;;;5.22;;
22849;SDS011;11591;44.792;10.358;2023-07-13T15:21:24;9.90;;;4.65;;
22849;SDS011;11591;44.792;10.358;2023-07-13T15:23:50;26.33;;;5.40;;
22849;SDS011;11591;44.792;10.358;2023-07-13T15:26:17;18.90;;;6.45;;
22849;SDS011;11591;44.792;10.358;2023-07-13T15:28:44;13.60;;;5.60;;
22849;SDS011;11591;44.792;10.358;2023-07-13T15:31:17;10.25;;;5.13;;
22849;SDS011;11591;44.792;10.358;2023-07-13T15:33:49;18.58;;;5.38;;
22849;SDS011;11591;44.792;10.358;2023-07-13T15:36:16;17.30;;;5.13;;
22849;SDS011;11591;44.792;10.358;2023-07-13T15:38:43;23.10;;;5.00;;
22849;SDS011;11591;44.792;10.358;2023-07-13T15:41:20;22.45;;;5.55;;
22849;SDS011;11591;44.792;10.358;2023-07-13T15:43:51;16.70;;;5.70;;
22849;SDS011;11591;44.792;10.358;2023-07-13T15:46:19;16.17;;;5.43;;
22849;SDS011;11591;44.792;10.358;2023-07-13T15:48:49;15.40;;;5.43;;
22849;SDS011;11591;44.792;10.358;2023-07-13T15:51:26;10.80;;;5.38;;
22849;SDS011;11591;44.792;10.358;2023-07-13T15:53:55;11.57;;;4.60;;
22849;SDS011;11591;44.792;10.358;2023-07-13T15:56:28;14.82;;;4.82;;
22849;SDS011;11591;44.792;10.358;2023-07-13T15:58:55;16.45;;;4.68;;
22849;SDS011;11591;44.792;10.358;2023-07-13T16:01:22;10.52;;;5.35;;
22849;SDS011;11591;44.792;10.358;2023-07-13T16:03:49;12.18;;;4.88;;
22849;SDS011;11591;44.792;10.358;2023-07-13T16:06:18;14.60;;;4.63;;
22849;SDS011;11591;44.792;10.358;2023-07-13T16:08:47;13.57;;;4.97;;
22849;SDS011;11591;44.792;10.358;2023-07-13T16:11:25;16.10;;;5.20;;
22849;SDS011;11591;44.792;10.358;2023-07-13T16:13:54;16.17;;;4.93;;
22849;SDS011;11591;44.792;10.358;2023-07-13T16:16:21;13.15;;;5.13;;
22849;SDS011;11591;44.792;10.358;2023-07-13T16:18:52;11.80;;;4.82;;
22849;SDS011;11591;44.792;10.358;2023-07-13T16:21:22;12.32;;;5.00;;
22849;SDS011;11591;44.792;10.358;2023-07-13T16:23:49;16.33;;;5.25;;
22849;SDS011;11591;44.792;10.358;2023-07-13T16:28:51;9.85;;;4.85;;
22849;SDS011;11591;44.792;10.358;2023-07-13T16:31:25;17.80;;;4.90;;
22849;SDS011;11591;44.792;10.358;2023-07-13T16:34:00;12.82;;;5.20;;
22849;SDS011;11591;44.792;10.358;2023-07-13T16:36:27;12.55;;;5.10;;
22849;SDS011;11591;44.792;10.358;2023-07-13T16:38:54;17.63;;;5.22;;
22849;SDS011;11591;44.792;10.358;2023-07-13T16:41:20;16.95;;;5.50;;
22849;SDS011;11591;44.792;10.358;2023-07-13T16:43:46;12.68;;;4.78;;
22849;SDS011;11591;44.792;10.358;2023-07-13T16:46:12;19.63;;;5.10;;
22849;SDS011;11591;44.792;10.358;2023-07-13T16:48:43;12.23;;;4.57;;
22849;SDS011;11591;44.792;10.358;2023-07-13T16:51:09;14.73;;;5.15;;
22849;SDS011;11591;44.792;10.358;2023-07-13T16:53:34;19.13;;;5.45;;
22849;SDS011;11591;44.792;10.358;2023-07-13T16:56:01;11.30;;;4.47;;
22849;SDS011;11591;44.792;10.358;2023-07-13T16:58:30;8.98;;;3.95;;
22849;SDS011;11591;44.792;10.358;2023-07-13T17:00:57;12.70;;;4.00;;
22849;SDS011;11591;44.792;10.358;2023-07-13T17:03:25;12.95;;;3.80;;
22849;SDS011;11591;44.792;10.358;2023-07-13T17:05:52;13.48;;;4.35;;
22849;SDS011;11591;44.792;10.358;2023-07-13T17:08:19;12.43;;;3.78;;
22849;SDS011;11591;44.792;10.358;2023-07-13T17:10:51;6.57;;;3.47;;
22849;SDS011;11591;44.792;10.358;2023-07-13T17:13:22;11.65;;;4.35;;
22849;SDS011;11591;44.792;10.358;2023-07-13T17:15:50;9.73;;;4.30;;
22849;SDS011;11591;44.792;10.358;2023-07-13T17:18:27;15.63;;;5.40;;
22849;SDS011;11591;44.792;10.358;2023-07-13T17:21:01;17.52;;;4.72;;
22849;SDS011;11591;44.792;10.358;2023-07-13T17:23:31;12.00;;;4.45;;
22849;SDS011;11591;44.792;10.358;2023-07-13T17:25:58;11.75;;;4.03;;
22849;SDS011;11591;44.792;10.358;2023-07-13T17:28:24;9.27;;;3.70;;
22849;SDS011;11591;44.792;10.358;2023-07-13T17:30:51;10.60;;;4.05;;
22849;SDS011;11591;44.792;10.358;2023-07-13T17:35:58;11.30;;;4.28;;
22849;SDS011;11591;44.792;10.358;2023-07-13T17:38:47;9.55;;;4.38;;
22849;SDS011;11591;44.792;10.358;2023-07-13T17:41:16;14.63;;;4.45;;
22849;SDS011;11591;44.792;10.358;2023-07-13T17:43:43;17.00;;;5.07;;
22849;SDS011;11591;44.792;10.358;2023-07-13T17:46:17;11.65;;;4.68;;
22849;SDS011;11591;44.792;10.358;2023-07-13T17:48:49;12.07;;;4.40;;
22849;SDS011;11591;44.792;10.358;2023-07-13T17:51:16;18.75;;;4.65;;
22849;SDS011;11591;44.792;10.358;2023-07-13T17:53:47;15.90;;;4.15;;
22849;SDS011;11591;44.792;10.358;2023-07-13T17:56:14;13.32;;;4.30;;
22849;SDS011;11591;44.792;10.358;2023-07-13T17:58:43;11.15;;;4.55;;
22849;SDS011;11591;44.792;10.358;2023-07-13T18:01:14;10.20;;;4.57;;
22849;SDS011;11591;44.792;10.358;2023-07-13T18:03:45;11.32;;;4.15;;
22849;SDS011;11591;44.792;10.358;2023-07-13T18:06:38;16.40;;;4.80;;
22849;SDS011;11591;44.792;10.358;2023-07-13T18:09:39;11.10;;;3.80;;
22849;SDS011;11591;44.792;10.358;2023-07-13T18:11:58;8.60;;;3.75;;
22849;SDS011;11591;44.792;10.358;2023-07-13T18:14:24;10.57;;;3.63;;
22849;SDS011;11591;44.792;10.358;2023-07-13T18:16:54;14.25;;;3.38;;
22849;SDS011;11591;44.792;10.358;2023-07-13T18:19:26;8.75;;;3.75;;
22849;SDS011;11591;44.792;10.358;2023-07-13T18:21:56;11.13;;;3.50;;
22849;SDS011;11591;44.792;10.358;2023-07-13T18:24:22;12.73;;;3.35;;
22849;SDS011;11591;44.792;10.358;2023-07-13T18:26:49;13.55;;;3.70;;
22849;SDS011;11591;44.792;10.358;2023-07-13T18:29:15;9.85;;;3.70;;
22849;SDS011;11591;44.792;10.358;2023-07-13T18:31:41;6.88;;;3.50;;
22849;SDS011;11591;44.792;10.358;2023-07-13T18:34:08;9.90;;;3.50;;
22849;SDS011;11591;44.792;10.358;2023-07-13T18:36:36;10.80;;;4.32;;
22849;SDS011;11591;44.792;10.358;2023-07-13T18:39:08;15.43;;;4.03;;
22849;SDS011;11591;44.792;10.358;2023-07-13T18:41:38;9.23;;;3.70;;
22849;SDS011;11591;44.792;10.358;2023-07-13T18:44:04;10.20;;;3.75;;
22849;SDS011;11591;44.792;10.358;2023-07-13T18:46:30;11.18;;;3.60;;
22849;SDS011;11591;44.792;10.358;2023-07-13T18:48:59;16.85;;;4.47;;
22849;SDS011;11591;44.792;10.358;2023-07-13T18:51:26;10.10;;;3.78;;
22849;SDS011;11591;44.792;10.358;2023-07-13T18:53:52;13.90;;;3.63;;
22849;SDS011;11591;44.792;10.358;2023-07-13T18:56:18;14.27;;;4.13;;
22849;SDS011;11591;44.792;10.358;2023-07-13T18:58:44;10.38;;;3.83;;
22849;SDS011;11591;44.792;10.358;2023-07-13T19:01:16;11.70;;;4.43;;
22849;SDS011;11591;44.792;10.358;2023-07-13T19:04:45;11.20;;;3.85;;
22849;SDS011;11591;44.792;10.358;2023-07-13T19:06:54;8.75;;;4.28;;
22849;SDS011;11591;44.792;10.358;2023-07-13T19:09:20;16.00;;;4.57;;
22849;SDS011;11591;44.792;10.358;2023-07-13T19:11:46;9.05;;;3.80;;
22849;SDS011;11591;44.792;10.358;2023-07-13T19:14:13;9.23;;;4.45;;
22849;SDS011;11591;44.792;10.358;2023-07-13T19:16:42;12.25;;;4.35;;
22849;SDS011;11591;44.792;10.358;2023-07-13T19:19:12;11.48;;;4.93;;
22849;SDS011;11591;44.792;10.358;2023-07-13T19:21:40;12.57;;;4.47;;
22849;SDS011;11591;44.792;10.358;2023-07-13T19:24:21;11.32;;;4.65;;
22849;SDS011;11591;44.792;10.358;2023-07-13T19:26:49;11.25;;;4.20;;
22849;SDS011;11591;44.792;10.358;2023-07-13T19:29:18;12.75;;;4.47;;
22849;SDS011;11591;44.792;10.358;2023-07-13T19:31:46;12.50;;;4.57;;
22849;SDS011;11591;44.792;10.358;2023-07-13T19:34:16;12.40;;;4.57;;
22849;SDS011;11591;44.792;10.358;2023-07-13T19:36:42;10.88;;;4.70;;
22849;SDS011;11591;44.792;10.358;2023-07-13T19:39:31;11.02;;;5.00;;
22849;SDS011;11591;44.792;10.358;2023-07-13T19:42:00;19.70;;;9.02;;
22849;SDS011;11591;44.792;10.358;2023-07-13T19:44:29;15.27;;;5.75;;
22849;SDS011;11591;44.792;10.358;2023-07-13T19:46:55;18.75;;;6.30;;
22849;SDS011;11591;44.792;10.358;2023-07-13T19:49:24;16.00;;;6.15;;
22849;SDS011;11591;44.792;10.358;2023-07-13T19:51:50;15.98;;;7.68;;
22849;SDS011;11591;44.792;10.358;2023-07-13T19:54:16;18.42;;;7.63;;
22849;SDS011;11591;44.792;10.358;2023-07-13T19:56:43;10.90;;;6.97;;
22849;SDS011;11591;44.792;10.358;2023-07-13T20:01:56;17.38;;;5.45;;
22849;SDS011;11591;44.792;10.358;2023-07-13T20:04:23;16.17;;;6.03;;
22849;SDS011;11591;44.792;10.358;2023-07-13T20:06:50;11.63;;;5.25;;
22849;SDS011;11591;44.792;10.358;2023-07-13T20:09:17;10.63;;;4.70;;
22849;SDS011;11591;44.792;10.358;2023-07-13T20:11:45;14.93;;;5.43;;
22849;SDS011;11591;44.792;10.358;2023-07-13T20:14:30;15.20;;;5.35;;
22849;SDS011;11591;44.792;10.358;2023-07-13T20:16:59;15.88;;;5.38;;
22849;SDS011;11591;44.792;10.358;2023-07-13T20:19:33;10.57;;;4.82;;
22849;SDS011;11591;44.792;10.358;2023-07-13T20:22:00;14.23;;;4.68;;
22849;SDS011;11591;44.792;10.358;2023-07-13T20:24:29;9.55;;;4.82;;
22849;SDS011;11591;44.792;10.358;2023-07-13T20:26:55;10.07;;;4.97;;
22849;SDS011;11591;44.792;10.358;2023-07-13T20:29:21;17.60;;;5.53;;
22849;SDS011;11591;44.792;10.358;2023-07-13T20:31:47;14.77;;;5.18;;
22849;SDS011;11591;44.792;10.358;2023-07-13T20:34:23;17.90;;;5.18;;
22849;SDS011;11591;44.792;10.358;2023-07-13T20:36:52;17.02;;;5.50;;
22849;SDS011;11591;44.792;10.358;2023-07-13T20:39:19;14.27;;;5.40;;
